KHIE

Mount Washington Regional Airport

Whitefield, New Hampshire, USA
METAR KHIE 241152Z AUTO 23008KT 200V280 10SM OVC038 02/01 A3003 RMK AO2 SLP182 60002 70019 T00220006 10028 20006 53020
Observed Flight Rules
Feb-24 @ 11:52 UTC (32 minutes ago) Visual Flight Rules
Wind Visibility Clouds
230° at 8 knots 10 miles
  • Overcast at 3,800' AGL
Temperatures Readings
Current 2°C / 36°F
Dewpoint 1°C / 34°F
Humidity 93%
Altimeter 30.03" Hg
Pressure 1018.2 hPa
Elevation 318
METAR KHIE 241152Z AUTO 23008KT 200V280 10SM OVC038 02/01 A3003 RMK AO2 SLP182 60002 70019 T00220006 10028 20006 53020
Observed Flight Rules
Feb-24 @ 11:52 UTC
(32 minutes ago)
VFR
Wind Visibility
230° at 8 knots 10 miles
Clouds
  • Overcast at 3,800' AGL
Temperature Dewpoint
2°C / 36°F 1°C / 34°F
Humidity Altimeter Pressure
93% 30.03" Hg 1018.2 hPa